sensor_id;sensor_type;location;lat;lon;timestamp;P1;durP1;ratioP1;P2;durP2;ratioP2
4837;SDS011;2433;48.768;9.154;2024-01-30T00:02:21;8.50;;;3.63;;
4837;SDS011;2433;48.768;9.154;2024-01-30T00:04:46;3.80;;;3.40;;
4837;SDS011;2433;48.768;9.154;2024-01-30T00:07:12;4.77;;;3.73;;
4837;SDS011;2433;48.768;9.154;2024-01-30T00:09:38;3.83;;;3.20;;
4837;SDS011;2433;48.768;9.154;2024-01-30T00:12:05;4.20;;;3.40;;
4837;SDS011;2433;48.768;9.154;2024-01-30T00:14:31;7.37;;;4.83;;
4837;SDS011;2433;48.768;9.154;2024-01-30T00:16:57;3.47;;;3.10;;
4837;SDS011;2433;48.768;9.154;2024-01-30T00:19:22;6.07;;;3.90;;
4837;SDS011;2433;48.768;9.154;2024-01-30T00:21:48;3.20;;;2.90;;
4837;SDS011;2433;48.768;9.154;2024-01-30T00:24:14;4.40;;;3.97;;
4837;SDS011;2433;48.768;9.154;2024-01-30T00:26:39;5.10;;;3.07;;
4837;SDS011;2433;48.768;9.154;2024-01-30T00:29:05;5.10;;;3.13;;
4837;SDS011;2433;48.768;9.154;2024-01-30T00:31:30;6.20;;;2.93;;
4837;SDS011;2433;48.768;9.154;2024-01-30T00:33:56;6.30;;;4.07;;
4837;SDS011;2433;48.768;9.154;2024-01-30T00:36:22;5.60;;;3.80;;
4837;SDS011;2433;48.768;9.154;2024-01-30T00:38:47;5.93;;;3.67;;
4837;SDS011;2433;48.768;9.154;2024-01-30T00:41:13;5.70;;;3.37;;
4837;SDS011;2433;48.768;9.154;2024-01-30T00:43:39;6.70;;;4.27;;
4837;SDS011;2433;48.768;9.154;2024-01-30T00:46:04;5.63;;;4.03;;
4837;SDS011;2433;48.768;9.154;2024-01-30T00:48:30;3.47;;;3.17;;
4837;SDS011;2433;48.768;9.154;2024-01-30T00:50:55;5.57;;;3.57;;
4837;SDS011;2433;48.768;9.154;2024-01-30T00:53:21;3.97;;;3.57;;
4837;SDS011;2433;48.768;9.154;2024-01-30T00:55:46;4.23;;;2.87;;
4837;SDS011;2433;48.768;9.154;2024-01-30T00:58:12;3.20;;;2.70;;
4837;SDS011;2433;48.768;9.154;2024-01-30T01:00:38;6.67;;;3.90;;
4837;SDS011;2433;48.768;9.154;2024-01-30T01:03:04;5.67;;;4.00;;
4837;SDS011;2433;48.768;9.154;2024-01-30T01:05:30;4.57;;;3.83;;
4837;SDS011;2433;48.768;9.154;2024-01-30T01:07:55;5.63;;;3.57;;
4837;SDS011;2433;48.768;9.154;2024-01-30T01:10:21;5.23;;;3.40;;
4837;SDS011;2433;48.768;9.154;2024-01-30T01:12:47;6.47;;;3.53;;
4837;SDS011;2433;48.768;9.154;2024-01-30T01:15:13;5.17;;;3.47;;
4837;SDS011;2433;48.768;9.154;2024-01-30T01:17:39;6.20;;;3.07;;
4837;SDS011;2433;48.768;9.154;2024-01-30T01:20:04;4.97;;;3.67;;
4837;SDS011;2433;48.768;9.154;2024-01-30T01:22:31;5.83;;;3.13;;
4837;SDS011;2433;48.768;9.154;2024-01-30T01:24:57;3.53;;;2.80;;
4837;SDS011;2433;48.768;9.154;2024-01-30T01:27:24;8.13;;;3.20;;
4837;SDS011;2433;48.768;9.154;2024-01-30T01:29:50;3.03;;;2.73;;
4837;SDS011;2433;48.768;9.154;2024-01-30T01:32:16;4.93;;;3.67;;
4837;SDS011;2433;48.768;9.154;2024-01-30T01:34:41;3.80;;;2.87;;
4837;SDS011;2433;48.768;9.154;2024-01-30T01:37:07;3.87;;;2.83;;
4837;SDS011;2433;48.768;9.154;2024-01-30T01:39:32;3.33;;;2.60;;
4837;SDS011;2433;48.768;9.154;2024-01-30T01:41:58;4.67;;;3.00;;
4837;SDS011;2433;48.768;9.154;2024-01-30T01:44:24;4.30;;;2.53;;
4837;SDS011;2433;48.768;9.154;2024-01-30T01:46:49;5.97;;;4.80;;
4837;SDS011;2433;48.768;9.154;2024-01-30T01:49:16;4.20;;;2.83;;
4837;SDS011;2433;48.768;9.154;2024-01-30T01:51:42;4.73;;;2.87;;
4837;SDS011;2433;48.768;9.154;2024-01-30T01:54:09;3.73;;;2.73;;
4837;SDS011;2433;48.768;9.154;2024-01-30T01:56:35;3.93;;;2.60;;
4837;SDS011;2433;48.768;9.154;2024-01-30T01:59:06;5.03;;;3.23;;
4837;SDS011;2433;48.768;9.154;2024-01-30T02:01:33;3.00;;;2.63;;
4837;SDS011;2433;48.768;9.154;2024-01-30T02:04:00;4.93;;;3.10;;
4837;SDS011;2433;48.768;9.154;2024-01-30T02:06:26;3.00;;;2.80;;
4837;SDS011;2433;48.768;9.154;2024-01-30T02:08:53;5.00;;;3.13;;
4837;SDS011;2433;48.768;9.154;2024-01-30T02:11:19;3.23;;;2.47;;
4837;SDS011;2433;48.768;9.154;2024-01-30T02:13:45;3.93;;;3.53;;
4837;SDS011;2433;48.768;9.154;2024-01-30T02:16:11;4.10;;;3.13;;
4837;SDS011;2433;48.768;9.154;2024-01-30T02:18:37;2.97;;;2.20;;
4837;SDS011;2433;48.768;9.154;2024-01-30T02:21:16;5.13;;;2.70;;
4837;SDS011;2433;48.768;9.154;2024-01-30T02:23:43;4.37;;;3.03;;
4837;SDS011;2433;48.768;9.154;2024-01-30T02:26:10;3.40;;;2.70;;
4837;SDS011;2433;48.768;9.154;2024-01-30T02:28:37;3.10;;;2.80;;
4837;SDS011;2433;48.768;9.154;2024-01-30T02:31:02;3.50;;;2.57;;
4837;SDS011;2433;48.768;9.154;2024-01-30T02:33:28;5.30;;;3.13;;
4837;SDS011;2433;48.768;9.154;2024-01-30T02:35:54;4.60;;;2.83;;
4837;SDS011;2433;48.768;9.154;2024-01-30T02:38:20;4.10;;;2.73;;
4837;SDS011;2433;48.768;9.154;2024-01-30T02:40:45;3.03;;;2.70;;
4837;SDS011;2433;48.768;9.154;2024-01-30T02:43:11;3.53;;;2.80;;
4837;SDS011;2433;48.768;9.154;2024-01-30T02:45:37;4.40;;;3.50;;
4837;SDS011;2433;48.768;9.154;2024-01-30T02:48:03;4.27;;;3.17;;
4837;SDS011;2433;48.768;9.154;2024-01-30T02:50:29;3.90;;;3.17;;
4837;SDS011;2433;48.768;9.154;2024-01-30T02:52:54;3.10;;;2.60;;
4837;SDS011;2433;48.768;9.154;2024-01-30T02:55:20;2.87;;;2.50;;
4837;SDS011;2433;48.768;9.154;2024-01-30T02:57:45;9.93;;;3.50;;
4837;SDS011;2433;48.768;9.154;2024-01-30T03:00:11;3.90;;;3.10;;
4837;SDS011;2433;48.768;9.154;2024-01-30T03:02:37;5.80;;;3.60;;
4837;SDS011;2433;48.768;9.154;2024-01-30T03:05:03;5.43;;;3.50;;
4837;SDS011;2433;48.768;9.154;2024-01-30T03:07:30;4.30;;;3.07;;
4837;SDS011;2433;48.768;9.154;2024-01-30T03:09:55;5.03;;;3.60;;
4837;SDS011;2433;48.768;9.154;2024-01-30T03:12:21;4.80;;;3.20;;
4837;SDS011;2433;48.768;9.154;2024-01-30T03:14:47;4.33;;;3.40;;
4837;SDS011;2433;48.768;9.154;2024-01-30T03:17:13;3.30;;;2.83;;
4837;SDS011;2433;48.768;9.154;2024-01-30T03:19:38;4.53;;;3.43;;
4837;SDS011;2433;48.768;9.154;2024-01-30T03:22:04;3.33;;;2.20;;
4837;SDS011;2433;48.768;9.154;2024-01-30T03:24:30;3.80;;;3.47;;
4837;SDS011;2433;48.768;9.154;2024-01-30T03:26:55;4.10;;;2.87;;
4837;SDS011;2433;48.768;9.154;2024-01-30T03:29:21;4.73;;;3.40;;
4837;SDS011;2433;48.768;9.154;2024-01-30T03:31:47;6.20;;;3.63;;
4837;SDS011;2433;48.768;9.154;2024-01-30T03:34:13;3.90;;;2.80;;
4837;SDS011;2433;48.768;9.154;2024-01-30T03:36:39;5.88;;;3.47;;
4837;SDS011;2433;48.768;9.154;2024-01-30T03:39:05;3.03;;;2.73;;
4837;SDS011;2433;48.768;9.154;2024-01-30T03:41:31;5.00;;;3.33;;
4837;SDS011;2433;48.768;9.154;2024-01-30T03:43:57;3.87;;;3.53;;
4837;SDS011;2433;48.768;9.154;2024-01-30T03:46:22;3.50;;;2.87;;
4837;SDS011;2433;48.768;9.154;2024-01-30T03:48:48;2.63;;;2.40;;
4837;SDS011;2433;48.768;9.154;2024-01-30T03:51:13;4.40;;;2.93;;
4837;SDS011;2433;48.768;9.154;2024-01-30T03:53:44;3.13;;;2.30;;
4837;SDS011;2433;48.768;9.154;2024-01-30T03:56:11;4.32;;;2.70;;
4837;SDS011;2433;48.768;9.154;2024-01-30T03:58:38;3.38;;;2.13;;
4837;SDS011;2433;48.768;9.154;2024-01-30T04:01:03;3.93;;;2.30;;
4837;SDS011;2433;48.768;9.154;2024-01-30T04:03:29;3.43;;;2.47;;
4837;SDS011;2433;48.768;9.154;2024-01-30T04:05:55;3.10;;;2.70;;
4837;SDS011;2433;48.768;9.154;2024-01-30T04:08:20;2.27;;;2.07;;
4837;SDS011;2433;48.768;9.154;2024-01-30T04:10:46;3.73;;;2.77;;
4837;SDS011;2433;48.768;9.154;2024-01-30T04:13:12;3.43;;;2.60;;
4837;SDS011;2433;48.768;9.154;2024-01-30T04:15:38;4.23;;;2.73;;
4837;SDS011;2433;48.768;9.154;2024-01-30T04:18:04;2.60;;;2.37;;
4837;SDS011;2433;48.768;9.154;2024-01-30T04:20:30;3.97;;;3.60;;
4837;SDS011;2433;48.768;9.154;2024-01-30T04:22:55;5.23;;;3.80;;
4837;SDS011;2433;48.768;9.154;2024-01-30T04:25:21;3.60;;;2.77;;
4837;SDS011;2433;48.768;9.154;2024-01-30T04:27:47;3.53;;;2.47;;
4837;SDS011;2433;48.768;9.154;2024-01-30T04:30:13;2.77;;;2.53;;
4837;SDS011;2433;48.768;9.154;2024-01-30T04:32:39;1.90;;;1.60;;
4837;SDS011;2433;48.768;9.154;2024-01-30T04:35:04;3.80;;;2.73;;
4837;SDS011;2433;48.768;9.154;2024-01-30T04:37:30;4.33;;;3.03;;
4837;SDS011;2433;48.768;9.154;2024-01-30T04:39:56;2.93;;;2.50;;
4837;SDS011;2433;48.768;9.154;2024-01-30T04:42:22;3.27;;;2.60;;
4837;SDS011;2433;48.768;9.154;2024-01-30T04:44:47;3.03;;;2.83;;
4837;SDS011;2433;48.768;9.154;2024-01-30T04:47:13;3.50;;;3.20;;
4837;SDS011;2433;48.768;9.154;2024-01-30T04:49:38;5.63;;;2.50;;
4837;SDS011;2433;48.768;9.154;2024-01-30T04:52:07;5.00;;;3.10;;
4837;SDS011;2433;48.768;9.154;2024-01-30T04:54:33;4.07;;;3.23;;
4837;SDS011;2433;48.768;9.154;2024-01-30T04:56:59;5.33;;;3.73;;
4837;SDS011;2433;48.768;9.154;2024-01-30T04:59:25;5.17;;;3.17;;
4837;SDS011;2433;48.768;9.154;2024-01-30T05:01:51;6.03;;;3.30;;
4837;SDS011;2433;48.768;9.154;2024-01-30T05:04:16;3.50;;;3.00;;
4837;SDS011;2433;48.768;9.154;2024-01-30T05:06:42;4.10;;;3.70;;
4837;SDS011;2433;48.768;9.154;2024-01-30T05:09:08;3.45;;;2.97;;
4837;SDS011;2433;48.768;9.154;2024-01-30T05:11:38;3.90;;;3.20;;
4837;SDS011;2433;48.768;9.154;2024-01-30T05:14:04;3.05;;;2.70;;
4837;SDS011;2433;48.768;9.154;2024-01-30T05:16:31;5.40;;;3.78;;
4837;SDS011;2433;48.768;9.154;2024-01-30T05:18:56;2.47;;;2.27;;
4837;SDS011;2433;48.768;9.154;2024-01-30T05:21:22;4.80;;;3.17;;
4837;SDS011;2433;48.768;9.154;2024-01-30T05:23:48;5.10;;;2.60;;
4837;SDS011;2433;48.768;9.154;2024-01-30T05:26:13;3.60;;;3.13;;
4837;SDS011;2433;48.768;9.154;2024-01-30T05:28:39;5.50;;;3.50;;
4837;SDS011;2433;48.768;9.154;2024-01-30T05:31:04;8.97;;;4.40;;
4837;SDS011;2433;48.768;9.154;2024-01-30T05:33:30;4.00;;;3.60;;
4837;SDS011;2433;48.768;9.154;2024-01-30T05:35:56;5.60;;;3.63;;
4837;SDS011;2433;48.768;9.154;2024-01-30T05:38:21;3.57;;;3.27;;
4837;SDS011;2433;48.768;9.154;2024-01-30T05:40:47;4.40;;;3.40;;
4837;SDS011;2433;48.768;9.154;2024-01-30T05:43:12;5.83;;;3.07;;
4837;SDS011;2433;48.768;9.154;2024-01-30T05:45:38;6.17;;;2.90;;
4837;SDS011;2433;48.768;9.154;2024-01-30T05:48:04;5.10;;;3.13;;
4837;SDS011;2433;48.768;9.154;2024-01-30T05:50:30;6.85;;;3.55;;
4837;SDS011;2433;48.768;9.154;2024-01-30T05:52:55;4.03;;;3.27;;
4837;SDS011;2433;48.768;9.154;2024-01-30T05:55:21;4.67;;;3.13;;
4837;SDS011;2433;48.768;9.154;2024-01-30T05:57:46;6.43;;;3.43;;
4837;SDS011;2433;48.768;9.154;2024-01-30T06:00:13;4.00;;;3.53;;
4837;SDS011;2433;48.768;9.154;2024-01-30T06:02:38;5.45;;;3.55;;
4837;SDS011;2433;48.768;9.154;2024-01-30T06:05:04;6.40;;;4.70;;
4837;SDS011;2433;48.768;9.154;2024-01-30T06:07:31;4.23;;;3.93;;
4837;SDS011;2433;48.768;9.154;2024-01-30T06:09:56;5.50;;;3.63;;
4837;SDS011;2433;48.768;9.154;2024-01-30T06:12:22;4.27;;;3.23;;
4837;SDS011;2433;48.768;9.154;2024-01-30T06:14:48;3.90;;;2.70;;
4837;SDS011;2433;48.768;9.154;2024-01-30T06:17:13;3.80;;;3.07;;
4837;SDS011;2433;48.768;9.154;2024-01-30T06:19:39;6.43;;;3.57;;
4837;SDS011;2433;48.768;9.154;2024-01-30T06:22:04;6.10;;;3.73;;
4837;SDS011;2433;48.768;9.154;2024-01-30T06:24:30;4.03;;;3.43;;
4837;SDS011;2433;48.768;9.154;2024-01-30T06:26:56;5.07;;;3.90;;
4837;SDS011;2433;48.768;9.154;2024-01-30T06:29:21;4.40;;;3.60;;
4837;SDS011;2433;48.768;9.154;2024-01-30T06:31:47;5.73;;;3.93;;
4837;SDS011;2433;48.768;9.154;2024-01-30T06:34:12;3.80;;;3.37;;
4837;SDS011;2433;48.768;9.154;2024-01-30T06:36:38;7.73;;;3.20;;
4837;SDS011;2433;48.768;9.154;2024-01-30T06:39:04;6.83;;;3.40;;
4837;SDS011;2433;48.768;9.154;2024-01-30T06:41:29;9.47;;;5.17;;
4837;SDS011;2433;48.768;9.154;2024-01-30T06:43:55;6.00;;;4.37;;
4837;SDS011;2433;48.768;9.154;2024-01-30T06:46:21;6.80;;;4.22;;
4837;SDS011;2433;48.768;9.154;2024-01-30T06:48:47;7.80;;;4.67;;
4837;SDS011;2433;48.768;9.154;2024-01-30T06:51:12;9.23;;;3.40;;
4837;SDS011;2433;48.768;9.154;2024-01-30T06:53:38;7.70;;;5.00;;
4837;SDS011;2433;48.768;9.154;2024-01-30T06:56:04;4.17;;;3.77;;
4837;SDS011;2433;48.768;9.154;2024-01-30T06:58:30;4.72;;;3.78;;
4837;SDS011;2433;48.768;9.154;2024-01-30T07:00:56;6.00;;;3.73;;
4837;SDS011;2433;48.768;9.154;2024-01-30T07:03:21;5.55;;;3.60;;
4837;SDS011;2433;48.768;9.154;2024-01-30T07:05:47;4.23;;;3.43;;
4837;SDS011;2433;48.768;9.154;2024-01-30T07:08:13;4.70;;;3.80;;
4837;SDS011;2433;48.768;9.154;2024-01-30T07:10:42;5.30;;;4.78;;
4837;SDS011;2433;48.768;9.154;2024-01-30T07:13:11;7.32;;;3.30;;
4837;SDS011;2433;48.768;9.154;2024-01-30T07:15:37;6.73;;;4.40;;
4837;SDS011;2433;48.768;9.154;2024-01-30T07:18:03;5.60;;;3.80;;
4837;SDS011;2433;48.768;9.154;2024-01-30T07:20:30;6.28;;;4.10;;
4837;SDS011;2433;48.768;9.154;2024-01-30T07:23:00;4.35;;;3.40;;
4837;SDS011;2433;48.768;9.154;2024-01-30T07:25:25;7.38;;;4.82;;
4837;SDS011;2433;48.768;9.154;2024-01-30T07:27:52;6.78;;;5.25;;
4837;SDS011;2433;48.768;9.154;2024-01-30T07:30:19;6.27;;;4.30;;
4837;SDS011;2433;48.768;9.154;2024-01-30T07:32:45;5.30;;;4.20;;
4837;SDS011;2433;48.768;9.154;2024-01-30T07:35:11;4.15;;;3.60;;
4837;SDS011;2433;48.768;9.154;2024-01-30T07:37:37;5.80;;;3.93;;
4837;SDS011;2433;48.768;9.154;2024-01-30T07:40:03;6.83;;;4.07;;
4837;SDS011;2433;48.768;9.154;2024-01-30T07:42:29;4.23;;;3.50;;
4837;SDS011;2433;48.768;9.154;2024-01-30T07:44:55;4.50;;;3.73;;
4837;SDS011;2433;48.768;9.154;2024-01-30T07:47:21;9.07;;;4.03;;
4837;SDS011;2433;48.768;9.154;2024-01-30T07:49:46;5.30;;;3.70;;
4837;SDS011;2433;48.768;9.154;2024-01-30T07:52:13;5.30;;;4.00;;
4837;SDS011;2433;48.768;9.154;2024-01-30T07:54:39;6.47;;;4.60;;
4837;SDS011;2433;48.768;9.154;2024-01-30T07:57:05;8.03;;;4.97;;
4837;SDS011;2433;48.768;9.154;2024-01-30T07:59:30;9.17;;;4.80;;
4837;SDS011;2433;48.768;9.154;2024-01-30T08:01:56;5.90;;;4.00;;
4837;SDS011;2433;48.768;9.154;2024-01-30T08:04:21;5.10;;;4.30;;
4837;SDS011;2433;48.768;9.154;2024-01-30T08:06:47;6.07;;;4.83;;
4837;SDS011;2433;48.768;9.154;2024-01-30T08:09:14;7.47;;;4.80;;
4837;SDS011;2433;48.768;9.154;2024-01-30T08:11:39;6.97;;;4.90;;
4837;SDS011;2433;48.768;9.154;2024-01-30T08:14:05;4.57;;;4.10;;
4837;SDS011;2433;48.768;9.154;2024-01-30T08:16:31;6.33;;;5.33;;
4837;SDS011;2433;48.768;9.154;2024-01-30T08:18:56;4.67;;;4.20;;
4837;SDS011;2433;48.768;9.154;2024-01-30T08:21:23;5.07;;;4.50;;
4837;SDS011;2433;48.768;9.154;2024-01-30T08:23:49;5.60;;;4.18;;
4837;SDS011;2433;48.768;9.154;2024-01-30T08:26:15;4.00;;;3.60;;
4837;SDS011;2433;48.768;9.154;2024-01-30T08:28:40;4.10;;;3.70;;
4837;SDS011;2433;48.768;9.154;2024-01-30T08:31:06;8.77;;;4.47;;
4837;SDS011;2433;48.768;9.154;2024-01-30T08:33:32;10.40;;;5.57;;
4837;SDS011;2433;48.768;9.154;2024-01-30T08:35:57;7.20;;;5.60;;
4837;SDS011;2433;48.768;9.154;2024-01-30T08:38:23;6.17;;;5.50;;
4837;SDS011;2433;48.768;9.154;2024-01-30T08:40:49;4.93;;;4.40;;
4837;SDS011;2433;48.768;9.154;2024-01-30T08:43:14;8.00;;;4.60;;
4837;SDS011;2433;48.768;9.154;2024-01-30T08:45:40;5.83;;;4.97;;
4837;SDS011;2433;48.768;9.154;2024-01-30T08:48:06;5.23;;;4.73;;
4837;SDS011;2433;48.768;9.154;2024-01-30T08:50:33;8.27;;;5.83;;
4837;SDS011;2433;48.768;9.154;2024-01-30T08:52:59;5.20;;;4.70;;
4837;SDS011;2433;48.768;9.154;2024-01-30T08:55:25;7.20;;;6.10;;
4837;SDS011;2433;48.768;9.154;2024-01-30T08:57:50;7.97;;;5.10;;
4837;SDS011;2433;48.768;9.154;2024-01-30T09:00:17;5.30;;;4.53;;
4837;SDS011;2433;48.768;9.154;2024-01-30T09:02:43;7.23;;;4.90;;
4837;SDS011;2433;48.768;9.154;2024-01-30T09:05:08;6.87;;;4.47;;
4837;SDS011;2433;48.768;9.154;2024-01-30T09:07:34;4.53;;;4.10;;
4837;SDS011;2433;48.768;9.154;2024-01-30T09:10:00;10.07;;;6.97;;
4837;SDS011;2433;48.768;9.154;2024-01-30T09:12:26;7.93;;;5.93;;
4837;SDS011;2433;48.768;9.154;2024-01-30T09:14:51;5.90;;;4.40;;
4837;SDS011;2433;48.768;9.154;2024-01-30T09:17:17;6.00;;;5.40;;
4837;SDS011;2433;48.768;9.154;2024-01-30T09:19:42;9.87;;;5.43;;
4837;SDS011;2433;48.768;9.154;2024-01-30T09:22:08;7.87;;;5.50;;
4837;SDS011;2433;48.768;9.154;2024-01-30T09:24:34;8.77;;;5.47;;
4837;SDS011;2433;48.768;9.154;2024-01-30T09:27:00;5.67;;;5.17;;
4837;SDS011;2433;48.768;9.154;2024-01-30T09:29:25;9.37;;;6.67;;
4837;SDS011;2433;48.768;9.154;2024-01-30T09:31:51;9.10;;;5.93;;
4837;SDS011;2433;48.768;9.154;2024-01-30T09:34:17;5.87;;;5.27;;
4837;SDS011;2433;48.768;9.154;2024-01-30T09:36:43;14.80;;;6.27;;
4837;SDS011;2433;48.768;9.154;2024-01-30T09:39:08;6.87;;;5.40;;
4837;SDS011;2433;48.768;9.154;2024-01-30T09:41:35;14.57;;;7.80;;
4837;SDS011;2433;48.768;9.154;2024-01-30T09:44:19;9.43;;;6.07;;
4837;SDS011;2433;48.768;9.154;2024-01-30T09:46:46;12.07;;;6.70;;
4837;SDS011;2433;48.768;9.154;2024-01-30T09:49:13;8.00;;;6.03;;
4837;SDS011;2433;48.768;9.154;2024-01-30T09:51:39;11.43;;;6.80;;
4837;SDS011;2433;48.768;9.154;2024-01-30T09:54:05;8.30;;;6.30;;
4837;SDS011;2433;48.768;9.154;2024-01-30T09:56:32;8.50;;;6.10;;
4837;SDS011;2433;48.768;9.154;2024-01-30T09:58:58;9.90;;;7.10;;
4837;SDS011;2433;48.768;9.154;2024-01-30T10:01:24;7.13;;;5.67;;
4837;SDS011;2433;48.768;9.154;2024-01-30T10:03:50;10.77;;;7.23;;
4837;SDS011;2433;48.768;9.154;2024-01-30T10:06:18;10.30;;;6.63;;
4837;SDS011;2433;48.768;9.154;2024-01-30T10:08:44;8.20;;;6.47;;
4837;SDS011;2433;48.768;9.154;2024-01-30T10:11:09;9.30;;;6.57;;
4837;SDS011;2433;48.768;9.154;2024-01-30T10:13:35;7.30;;;5.80;;
4837;SDS011;2433;48.768;9.154;2024-01-30T10:16:01;8.37;;;5.83;;
4837;SDS011;2433;48.768;9.154;2024-01-30T10:18:28;7.30;;;5.90;;
4837;SDS011;2433;48.768;9.154;2024-01-30T10:20:54;8.63;;;6.27;;
4837;SDS011;2433;48.768;9.154;2024-01-30T10:23:19;9.50;;;6.70;;
4837;SDS011;2433;48.768;9.154;2024-01-30T10:25:45;7.80;;;7.10;;
4837;SDS011;2433;48.768;9.154;2024-01-30T10:28:11;9.90;;;6.90;;
4837;SDS011;2433;48.768;9.154;2024-01-30T10:30:36;11.20;;;6.80;;
4837;SDS011;2433;48.768;9.154;2024-01-30T10:33:02;8.93;;;7.03;;
4837;SDS011;2433;48.768;9.154;2024-01-30T10:35:28;9.70;;;6.37;;
4837;SDS011;2433;48.768;9.154;2024-01-30T10:37:54;8.40;;;6.00;;
4837;SDS011;2433;48.768;9.154;2024-01-30T10:40:22;7.50;;;6.00;;
4837;SDS011;2433;48.768;9.154;2024-01-30T10:42:55;9.80;;;7.33;;
4837;SDS011;2433;48.768;9.154;2024-01-30T10:45:21;7.80;;;6.33;;
4837;SDS011;2433;48.768;9.154;2024-01-30T10:47:53;10.20;;;7.60;;
4837;SDS011;2433;48.768;9.154;2024-01-30T10:50:21;8.03;;;7.23;;
4837;SDS011;2433;48.768;9.154;2024-01-30T10:52:49;10.90;;;6.83;;
4837;SDS011;2433;48.768;9.154;2024-01-30T10:55:15;8.77;;;6.77;;
4837;SDS011;2433;48.768;9.154;2024-01-30T10:57:41;11.80;;;7.50;;
4837;SDS011;2433;48.768;9.154;2024-01-30T11:00:07;11.90;;;7.67;;
4837;SDS011;2433;48.768;9.154;2024-01-30T11:02:41;9.43;;;7.37;;
4837;SDS011;2433;48.768;9.154;2024-01-30T11:05:09;11.07;;;7.50;;
4837;SDS011;2433;48.768;9.154;2024-01-30T11:07:35;16.00;;;9.40;;
4837;SDS011;2433;48.768;9.154;2024-01-30T11:10:02;20.07;;;13.10;;
4837;SDS011;2433;48.768;9.154;2024-01-30T11:12:31;9.90;;;8.43;;
4837;SDS011;2433;48.768;9.154;2024-01-30T11:15:02;11.33;;;9.00;;
4837;SDS011;2433;48.768;9.154;2024-01-30T11:20:18;8.97;;;6.40;;
4837;SDS011;2433;48.768;9.154;2024-01-30T11:22:45;9.23;;;6.00;;
4837;SDS011;2433;48.768;9.154;2024-01-30T11:25:14;9.37;;;6.87;;
4837;SDS011;2433;48.768;9.154;2024-01-30T11:27:41;9.70;;;6.80;;
4837;SDS011;2433;48.768;9.154;2024-01-30T11:30:08;10.33;;;7.47;;
4837;SDS011;2433;48.768;9.154;2024-01-30T11:32:35;12.80;;;7.77;;
4837;SDS011;2433;48.768;9.154;2024-01-30T11:35:03;8.20;;;7.17;;
4837;SDS011;2433;48.768;9.154;2024-01-30T11:37:30;11.37;;;7.30;;
4837;SDS011;2433;48.768;9.154;2024-01-30T11:39:56;10.00;;;7.27;;
4837;SDS011;2433;48.768;9.154;2024-01-30T11:42:23;9.10;;;6.27;;
4837;SDS011;2433;48.768;9.154;2024-01-30T11:44:50;11.67;;;7.97;;
4837;SDS011;2433;48.768;9.154;2024-01-30T11:47:16;10.43;;;8.20;;
4837;SDS011;2433;48.768;9.154;2024-01-30T11:49:42;11.03;;;7.93;;
4837;SDS011;2433;48.768;9.154;2024-01-30T11:52:09;8.90;;;7.73;;
4837;SDS011;2433;48.768;9.154;2024-01-30T11:54:34;9.00;;;6.20;;
4837;SDS011;2433;48.768;9.154;2024-01-30T11:57:01;9.50;;;7.80;;
4837;SDS011;2433;48.768;9.154;2024-01-30T11:59:26;9.60;;;7.70;;
4837;SDS011;2433;48.768;9.154;2024-01-30T12:01:52;7.30;;;6.53;;
4837;SDS011;2433;48.768;9.154;2024-01-30T12:04:18;8.10;;;7.30;;
4837;SDS011;2433;48.768;9.154;2024-01-30T12:06:43;12.00;;;7.60;;
4837;SDS011;2433;48.768;9.154;2024-01-30T12:09:09;10.63;;;7.50;;
4837;SDS011;2433;48.768;9.154;2024-01-30T12:11:47;7.50;;;6.00;;
4837;SDS011;2433;48.768;9.154;2024-01-30T12:14:13;8.60;;;7.13;;
4837;SDS011;2433;48.768;9.154;2024-01-30T12:16:39;11.23;;;7.53;;
4837;SDS011;2433;48.768;9.154;2024-01-30T12:19:04;13.47;;;8.30;;
4837;SDS011;2433;48.768;9.154;2024-01-30T12:21:30;7.83;;;6.87;;
4837;SDS011;2433;48.768;9.154;2024-01-30T12:23:56;8.13;;;6.10;;
4837;SDS011;2433;48.768;9.154;2024-01-30T12:26:23;17.23;;;7.33;;
4837;SDS011;2433;48.768;9.154;2024-01-30T12:28:50;11.00;;;7.10;;
4837;SDS011;2433;48.768;9.154;2024-01-30T12:31:16;10.23;;;7.00;;
4837;SDS011;2433;48.768;9.154;2024-01-30T12:33:41;9.40;;;8.23;;
4837;SDS011;2433;48.768;9.154;2024-01-30T12:36:07;13.57;;;8.70;;
4837;SDS011;2433;48.768;9.154;2024-01-30T12:38:33;9.20;;;7.20;;
4837;SDS011;2433;48.768;9.154;2024-01-30T12:40:58;10.23;;;7.67;;
4837;SDS011;2433;48.768;9.154;2024-01-30T12:43:24;11.93;;;7.03;;
4837;SDS011;2433;48.768;9.154;2024-01-30T12:45:50;15.60;;;8.07;;
4837;SDS011;2433;48.768;9.154;2024-01-30T12:48:17;14.10;;;7.33;;
4837;SDS011;2433;48.768;9.154;2024-01-30T12:50:43;9.97;;;7.47;;
4837;SDS011;2433;48.768;9.154;2024-01-30T12:53:09;9.33;;;8.17;;
4837;SDS011;2433;48.768;9.154;2024-01-30T12:55:34;10.50;;;7.77;;
4837;SDS011;2433;48.768;9.154;2024-01-30T12:58:00;10.10;;;6.93;;
4837;SDS011;2433;48.768;9.154;2024-01-30T13:00:26;10.20;;;7.90;;
4837;SDS011;2433;48.768;9.154;2024-01-30T13:02:52;11.97;;;7.60;;
4837;SDS011;2433;48.768;9.154;2024-01-30T13:05:17;10.30;;;8.10;;
4837;SDS011;2433;48.768;9.154;2024-01-30T13:07:43;11.03;;;6.77;;
4837;SDS011;2433;48.768;9.154;2024-01-30T13:10:09;10.60;;;7.40;;
4837;SDS011;2433;48.768;9.154;2024-01-30T13:12:34;9.53;;;7.00;;
4837;SDS011;2433;48.768;9.154;2024-01-30T13:15:01;9.33;;;6.33;;
4837;SDS011;2433;48.768;9.154;2024-01-30T13:17:32;11.93;;;6.80;;
4837;SDS011;2433;48.768;9.154;2024-01-30T13:19:58;10.27;;;7.27;;
4837;SDS011;2433;48.768;9.154;2024-01-30T13:22:24;8.47;;;6.63;;
4837;SDS011;2433;48.768;9.154;2024-01-30T13:24:49;10.20;;;6.63;;
4837;SDS011;2433;48.768;9.154;2024-01-30T13:27:16;9.93;;;6.43;;
4837;SDS011;2433;48.768;9.154;2024-01-30T13:29:42;8.30;;;6.53;;
4837;SDS011;2433;48.768;9.154;2024-01-30T13:32:07;10.60;;;6.43;;
4837;SDS011;2433;48.768;9.154;2024-01-30T13:34:33;8.80;;;6.03;;
4837;SDS011;2433;48.768;9.154;2024-01-30T13:36:58;9.63;;;5.90;;
4837;SDS011;2433;48.768;9.154;2024-01-30T13:39:25;7.13;;;5.40;;
4837;SDS011;2433;48.768;9.154;2024-01-30T13:41:50;16.93;;;5.30;;
4837;SDS011;2433;48.768;9.154;2024-01-30T13:44:16;9.70;;;5.37;;
4837;SDS011;2433;48.768;9.154;2024-01-30T13:46:42;7.67;;;6.70;;
4837;SDS011;2433;48.768;9.154;2024-01-30T13:49:08;10.43;;;7.87;;
4837;SDS011;2433;48.768;9.154;2024-01-30T13:51:34;7.00;;;6.30;;
4837;SDS011;2433;48.768;9.154;2024-01-30T13:54:00;7.17;;;5.77;;
4837;SDS011;2433;48.768;9.154;2024-01-30T13:56:25;9.30;;;6.07;;
4837;SDS011;2433;48.768;9.154;2024-01-30T13:58:52;7.53;;;5.33;;
4837;SDS011;2433;48.768;9.154;2024-01-30T14:01:18;8.40;;;5.70;;
4837;SDS011;2433;48.768;9.154;2024-01-30T14:03:43;13.30;;;5.73;;
4837;SDS011;2433;48.768;9.154;2024-01-30T14:06:09;10.70;;;6.30;;
4837;SDS011;2433;48.768;9.154;2024-01-30T14:08:35;8.17;;;6.13;;
4837;SDS011;2433;48.768;9.154;2024-01-30T14:11:01;9.27;;;5.90;;
4837;SDS011;2433;48.768;9.154;2024-01-30T14:13:26;9.10;;;6.27;;
4837;SDS011;2433;48.768;9.154;2024-01-30T14:15:52;6.03;;;5.40;;
4837;SDS011;2433;48.768;9.154;2024-01-30T14:18:18;10.97;;;6.47;;
4837;SDS011;2433;48.768;9.154;2024-01-30T14:20:43;5.80;;;4.87;;
4837;SDS011;2433;48.768;9.154;2024-01-30T14:23:09;6.37;;;5.13;;
4837;SDS011;2433;48.768;9.154;2024-01-30T14:25:34;6.17;;;4.80;;
4837;SDS011;2433;48.768;9.154;2024-01-30T14:28:00;9.20;;;5.40;;
4837;SDS011;2433;48.768;9.154;2024-01-30T14:30:26;6.23;;;5.63;;
4837;SDS011;2433;48.768;9.154;2024-01-30T14:32:51;7.67;;;5.87;;
4837;SDS011;2433;48.768;9.154;2024-01-30T14:35:17;6.80;;;5.47;;
4837;SDS011;2433;48.768;9.154;2024-01-30T14:37:44;7.60;;;5.60;;
4837;SDS011;2433;48.768;9.154;2024-01-30T14:40:10;10.57;;;5.87;;
4837;SDS011;2433;48.768;9.154;2024-01-30T14:42:35;8.20;;;5.67;;
4837;SDS011;2433;48.768;9.154;2024-01-30T14:45:03;9.20;;;6.30;;
4837;SDS011;2433;48.768;9.154;2024-01-30T14:47:29;8.10;;;5.73;;
4837;SDS011;2433;48.768;9.154;2024-01-30T14:49:56;8.13;;;6.37;;
4837;SDS011;2433;48.768;9.154;2024-01-30T14:52:22;6.60;;;6.00;;
4837;SDS011;2433;48.768;9.154;2024-01-30T14:54:48;8.87;;;5.80;;
4837;SDS011;2433;48.768;9.154;2024-01-30T14:57:13;9.40;;;6.20;;
4837;SDS011;2433;48.768;9.154;2024-01-30T14:59:39;8.50;;;6.50;;
4837;SDS011;2433;48.768;9.154;2024-01-30T15:02:05;7.03;;;5.73;;
4837;SDS011;2433;48.768;9.154;2024-01-30T15:04:31;8.50;;;6.70;;
4837;SDS011;2433;48.768;9.154;2024-01-30T15:06:57;9.30;;;6.20;;
4837;SDS011;2433;48.768;9.154;2024-01-30T15:09:23;12.57;;;7.40;;